X  Κλείσε Στοιχεία αεροπορικών μετεωρολογικών δεδομένων METAR     EBBR Brussels Airport
θερμοκρασία
16°C θερμοκρασία
6°C Σημείο δρόσου
52% Υγρασία



Ανεμος
10 KM/H
6 MPH
3 M/S
5 KTS



140°
NA
Τρέχουσες συνθήκες

Σαφή Σαφή
πίεση 1028.92 (hPa) - 30.38 (inHg)
Ορατότητα 6.2 (μίλι) - 10 (km)
Aεροδρόμιο
Κωδικός αεροδρομίου EBBR

Τοποθεσία: Brussels Airport
Απόσταση: 14 (km)

Metar:
EBBR 021420Z 14005KT 110V180 CAVOK 16/06 Q1029 NOSIG

ώρα: 2021-03-02 15:20 CET